This is the latest recevied weather packets stored in our database for station/object OE7BJT-13. If no packets are shown the sender has not sent any weather packets the latest 10 day(s).
| Time | Temp. | Humidity | Pressure | Rain* | Wind** | Luminosity | Snow |
|---|---|---|---|---|---|---|---|
| 1777725027 | 23.89° C | 20% | 1020 hPa | - | - | - | - |
| 1777724422 | 25.56° C | 21% | 1020 hPa | - | - | - | - |
| 1777723816 | 24.44° C | 21% | 1020 hPa | - | - | - | - |
| 1777721999 | 25° C | 21% | 1021 hPa | - | - | - | - |
| 1777720788 | 23.89° C | 23% | 1021 hPa | - | - | - | - |
| 1777720183 | 23.33° C | 22% | 1021 hPa | - | - | - | - |
| 1777718971 | 23.33° C | 26% | 1021 hPa | - | - | - | - |
| 1777718366 | 23.33° C | 27% | 1022 hPa | - | - | - | - |
| 1777717155 | 22.22° C | 27% | 1022 hPa | - | - | - | - |
| 1777716549 | 21.11° C | 29% | 1022 hPa | - | - | - | - |
| 1777715943 | 22.22° C | 28% | 1022 hPa | - | - | - | - |
| 1777715338 | 21.11° C | 30% | 1022 hPa | - | - | - | - |
| 1777714732 | 21.11° C | 30% | 1022 hPa | - | - | - | - |
| 1777714127 | 20.56° C | 31% | 1022 hPa | - | - | - | - |
| 1777712916 | 20° C | 33% | 1023 hPa | - | - | - | - |
| 1777712310 | 20° C | 35% | 1023 hPa | - | - | - | - |
| 1777710493 | 18.33° C | 39% | 1023 hPa | - | - | - | - |
| 1777709888 | 18.89° C | 38% | 1023 hPa | - | - | - | - |
| 1777709282 | 15.56° C | 44% | 1023 hPa | - | - | - | - |
| 1777708676 | 17.78° C | 40% | 1024 hPa | - | - | - | - |
| 1777708071 | 16.11° C | 45% | 1024 hPa | - | - | - | - |
| 1777707465 | 15° C | 44% | 1024 hPa | - | - | - | - |
| 1777706860 | 14.44° C | 48% | 1024 hPa | - | - | - | - |
| 1777704437 | 13.33° C | 56% | 1024 hPa | - | - | - | - |
| 1777703832 | 14.44° C | 55% | 1024 hPa | - | - | - | - |
* Rain since midnight (hover to see other rain measurements)
** Current wind speed in m/s (hover to see current wind gust speed)